Time;durP1;ratioP1;P1;durP2;ratioP2;P2;SDS_P1;SDS_P2;PMS_P1;PMS_P2;Temp;Humidity;BMP_temperature;BMP_pressure;BME280_temperature;BME280_humidity;BME280_pressure;Samples;Min_cycle;Max_cycle;Signal;HPM_P1;HPM_P2
2021/12/24 00:01:52;;;;;;;319.70;107.27;;;;;;;-1.29;100.00;97860.41;4992403;28;20088;-61
2021/12/24 00:04:17;;;;;;;315.63;105.80;;;;;;;-1.25;100.00;97839.53;4993114;28;20036;-61
2021/12/24 00:06:44;;;;;;;318.50;106.17;;;;;;;-1.26;100.00;97827.78;4988159;28;20108;-61
2021/12/24 00:09:09;;;;;;;322.03;104.43;;;;;;;-1.28;100.00;97843.66;4990190;28;20247;-62
2021/12/24 00:11:35;;;;;;;311.73;105.47;;;;;;;-1.15;100.00;97803.66;4991612;28;20216;-62
2021/12/24 00:14:04;;;;;;;306.00;104.50;;;;;;;-1.02;100.00;97839.88;4997722;28;20036;-63
2021/12/24 00:16:41;;;;;;;248.13;92.60;;;;;;;-0.99;100.00;97823.13;4989200;28;20054;-60
2021/12/24 00:35:29;;;;;;;240.70;97.53;;;;;;;-0.89;100.00;97783.81;4966671;28;20189;-59
2021/12/24 00:37:55;;;;;;;246.07;104.80;;;;;;;-1.04;100.00;97768.56;4972926;28;20468;-60
2021/12/24 00:40:21;;;;;;;264.07;102.23;;;;;;;-0.94;100.00;97763.69;4972439;28;20038;-61
2021/12/24 00:42:49;;;;;;;260.20;103.80;;;;;;;-0.90;100.00;97762.03;4971271;28;20069;-61
2021/12/24 00:45:17;;;;;;;251.97;100.90;;;;;;;-0.81;100.00;97768.84;4967737;28;20902;-59
2021/12/24 00:47:44;;;;;;;261.37;103.37;;;;;;;-0.79;100.00;97752.09;4971976;28;20042;-61
2021/12/24 00:50:14;;;;;;;260.17;104.20;;;;;;;-0.83;100.00;97732.75;4970148;28;20025;-60
2021/12/24 00:52:48;;;;;;;256.80;103.47;;;;;;;-0.81;100.00;97739.50;4970720;28;20461;-58
2021/12/24 00:55:19;;;;;;;242.70;98.60;;;;;;;-0.73;100.00;97753.00;4972840;28;20395;-61
2021/12/24 00:57:50;;;;;;;234.07;94.10;;;;;;;-0.73;100.00;97784.88;4973755;28;20039;-60
2021/12/24 01:00:37;;;;;;;228.70;93.63;;;;;;;-0.56;100.00;97773.31;4971413;28;20054;-57
2021/12/24 01:03:05;;;;;;;243.07;100.13;;;;;;;-0.62;100.00;97773.25;4968775;28;20157;-60
2021/12/24 01:05:32;;;;;;;245.03;96.40;;;;;;;-0.67;100.00;97773.19;4970993;28;20046;-61
2021/12/24 01:07:58;;;;;;;223.27;92.40;;;;;;;-0.69;100.00;97789.13;4974106;28;20053;-58
2021/12/24 01:10:30;;;;;;;218.53;91.57;;;;;;;-0.64;100.00;97790.00;4972147;28;20027;-60
2021/12/24 01:12:56;;;;;;;223.03;91.83;;;;;;;-0.62;100.00;97759.00;4969980;28;20264;-59
2021/12/24 01:15:23;;;;;;;233.47;96.53;;;;;;;-0.77;100.00;97735.34;4973414;28;20248;-60
2021/12/24 01:20:33;;;;;;;214.97;95.97;;;;;;;-0.78;100.00;97761.31;4970613;28;20034;-61
2021/12/24 01:25:41;;;;;;;207.87;90.83;;;;;;;-0.84;100.00;97746.16;4970914;28;20034;-59
2021/12/24 01:28:48;;;;;;;187.87;87.43;;;;;;;-0.74;100.00;97736.22;4972065;28;20632;-59
2021/12/24 01:39:23;;;;;;;180.63;85.33;;;;;;;-0.39;100.00;97774.34;4971374;28;20105;-59
2021/12/24 01:44:36;;;;;;;167.52;83.68;;;;;;;-0.24;100.00;97743.41;4970848;28;20504;-61
2021/12/24 01:47:05;;;;;;;156.67;81.73;;;;;;;-0.14;100.00;97737.63;4969774;28;20042;-60
2021/12/24 01:49:31;;;;;;;152.03;81.20;;;;;;;-0.21;100.00;97729.16;4971514;28;20022;-61
2021/12/24 01:51:57;;;;;;;153.37;81.13;;;;;;;-0.14;100.00;97732.59;4972944;28;20084;-61
2021/12/24 01:54:23;;;;;;;149.63;80.97;;;;;;;-0.08;100.00;97727.59;4972255;28;20030;-61
2021/12/24 01:56:49;;;;;;;150.33;81.37;;;;;;;-0.01;100.00;97722.66;4968648;28;20054;-60
2021/12/24 01:59:15;;;;;;;149.83;82.73;;;;;;;0.17;100.00;97726.13;4967086;28;20046;-60
2021/12/24 02:01:40;;;;;;;128.50;76.80;;;;;;;0.22;100.00;97714.38;4968408;28;20037;-61
2021/12/24 02:04:06;;;;;;;115.63;72.87;;;;;;;0.32;100.00;97709.44;4971667;28;20038;-61
2021/12/24 02:06:32;;;;;;;104.77;70.73;;;;;;;0.40;100.00;97722.06;4969067;28;20216;-62
2021/12/24 02:08:58;;;;;;;147.83;81.13;;;;;;;0.41;100.00;97718.72;4967974;28;20030;-60
2021/12/24 02:11:24;;;;;;;192.90;90.23;;;;;;;0.52;100.00;97719.63;4967625;28;20046;-62
2021/12/24 02:13:50;;;;;;;191.77;88.17;;;;;;;0.57;100.00;97723.03;4971573;28;20128;-61
2021/12/24 02:16:44;;;;;;;200.43;89.67;;;;;;;0.65;100.00;97718.84;4971087;28;20157;-61
2021/12/24 02:29:57;;;;;;;242.23;99.17;;;;;;;1.40;100.00;97691.38;4971269;28;20118;-62
2021/12/24 02:32:23;;;;;;;236.30;97.57;;;;;;;1.44;100.00;97691.38;4972273;28;20454;-62
2021/12/24 02:34:49;;;;;;;237.73;102.57;;;;;;;1.47;100.00;97688.84;4971054;28;20032;-62
2021/12/24 02:37:15;;;;;;;243.43;99.80;;;;;;;1.49;100.00;97674.53;4984716;28;20057;-61
2021/12/24 02:39:40;;;;;;;245.47;103.13;;;;;;;1.52;100.00;97659.41;4972606;28;20423;-63
2021/12/24 02:42:21;;;;;;;242.87;102.80;;;;;;;1.47;100.00;97653.50;4974911;28;20034;-62
2021/12/24 02:44:50;;;;;;;241.57;102.70;;;;;;;1.49;100.00;97645.91;4973322;28;20173;-62
2021/12/24 02:55:01;;;;;;;236.10;102.60;;;;;;;1.91;100.00;97645.91;4974162;28;20045;-61
2021/12/24 02:57:28;;;;;;;248.43;105.20;;;;;;;1.94;100.00;97635.81;4977937;28;20472;-62
2021/12/24 03:00:06;;;;;;;246.50;103.67;;;;;;;1.91;100.00;97640.03;4971890;28;20038;-61
2021/12/24 03:02:33;;;;;;;245.40;103.27;;;;;;;1.85;100.00;97638.34;4975262;28;20034;-60
2021/12/24 03:05:00;;;;;;;247.37;106.53;;;;;;;1.84;100.00;97629.94;4972831;28;20077;-61
2021/12/24 03:07:25;;;;;;;253.90;109.47;;;;;;;1.91;100.00;97635.00;4972429;28;20133;-62
2021/12/24 03:09:51;;;;;;;262.37;109.20;;;;;;;1.85;100.00;97625.72;4975196;28;20041;-62
2021/12/24 03:12:17;;;;;;;263.80;108.73;;;;;;;1.83;100.00;97620.66;4975774;28;20070;-62
2021/12/24 03:14:43;;;;;;;254.10;107.03;;;;;;;1.86;100.00;97607.19;4971970;28;20158;-62
2021/12/24 03:17:12;;;;;;;255.73;110.43;;;;;;;1.84;100.00;97604.66;4973045;28;20061;-61
2021/12/24 03:19:38;;;;;;;252.50;107.10;;;;;;;1.77;100.00;97594.56;4977508;28;20066;-60
2021/12/24 03:25:00;;;;;;;;;;;;;;;1.74;100.00;97602.97;4918131;29;20054;-60
2021/12/24 03:27:25;;;;;;;247.07;101.47;;;;;;;1.68;100.00;97595.41;4917814;29;19922;-61
2021/12/24 03:29:51;;;;;;;259.73;105.70;;;;;;;1.74;100.00;97587.00;4920095;29;20454;-60
2021/12/24 03:32:17;;;;;;;260.53;109.20;;;;;;;1.73;100.00;97585.31;4921183;29;20039;-57
2021/12/24 03:34:43;;;;;;;274.23;110.77;;;;;;;1.67;100.00;97585.31;4914783;29;20067;-60
2021/12/24 03:37:09;;;;;;;274.07;111.57;;;;;;;1.69;100.00;97576.06;4917160;29;20384;-59
2021/12/24 03:39:35;;;;;;;266.30;108.73;;;;;;;1.71;100.00;97587.81;4919777;29;20546;-59
2021/12/24 03:42:01;;;;;;;269.87;112.33;;;;;;;1.73;100.00;97571.00;4920575;29;20043;-60
2021/12/24 03:44:33;;;;;;;271.70;112.70;;;;;;;1.67;100.00;97591.19;4917974;29;20538;-58
2021/12/24 03:47:10;;;;;;;268.20;111.73;;;;;;;1.69;100.00;97579.41;4919550;29;20055;-59
2021/12/24 03:54:58;;;;;;;275.17;110.87;;;;;;;1.60;100.00;97571.84;4917727;29;20470;-59
2021/12/24 03:57:36;;;;;;;261.20;109.33;;;;;;;1.55;100.00;97580.25;4919487;29;20255;-58
2021/12/24 04:00:10;;;;;;;266.87;111.33;;;;;;;1.57;100.00;97573.53;4918449;29;20589;-57
2021/12/24 04:02:36;;;;;;;272.48;110.50;;;;;;;1.56;100.00;97571.84;4967712;28;20077;-59
2021/12/24 04:05:02;;;;;;;266.07;111.83;;;;;;;1.45;100.00;97576.03;4970069;28;20050;-58
2021/12/24 04:07:28;;;;;;;269.03;110.13;;;;;;;1.48;100.00;97584.50;4973067;28;20027;-59
2021/12/24 04:10:06;;;;;;;274.77;109.23;;;;;;;1.52;100.00;97577.75;4973282;28;20035;-58
2021/12/24 04:12:34;;;;;;;268.63;109.90;;;;;;;1.50;100.00;97560.06;4969031;28;20023;-59
2021/12/24 04:14:59;;;;;;;270.10;107.33;;;;;;;1.45;100.00;97563.41;4970415;28;20058;-54
2021/12/24 04:17:25;;;;;;;269.30;108.33;;;;;;;1.53;100.00;97549.13;4973907;28;20072;-58
2021/12/24 04:25:18;;;;;;;274.80;108.43;;;;;;;1.60;100.00;97551.66;4972463;28;20069;-59
2021/12/24 04:27:44;;;;;;;271.50;109.83;;;;;;;1.77;100.00;97570.16;4971457;28;20458;-58
2021/12/24 04:30:14;;;;;;;270.07;110.33;;;;;;;1.84;100.00;97569.28;4970903;28;20038;-54
2021/12/24 05:04:30;;;;;;;196.88;97.07;;;;;;;2.34;100.00;97575.03;4972694;28;20125;-56
2021/12/24 05:07:07;;;;;;;189.93;96.53;;;;;;;2.38;100.00;97576.72;4971145;28;20130;-58
2021/12/24 05:09:35;;;;;;;188.13;98.67;;;;;;;2.46;100.00;97583.41;4967579;28;20076;-58
2021/12/24 05:12:00;;;;;;;184.43;98.57;;;;;;;2.53;100.00;97580.03;4969756;28;20033;-58
2021/12/24 05:14:30;;;;;;;176.83;95.37;;;;;;;2.57;100.00;97581.69;4972660;28;20026;-58
2021/12/24 05:17:15;;;;;;;187.20;100.80;;;;;;;2.58;100.00;97564.84;4975486;28;20080;-57
2021/12/24 05:22:24;;;;;;;195.93;100.63;;;;;;;2.76;100.00;97572.31;4971292;28;20121;-59
2021/12/24 05:24:49;;;;;;;193.53;99.93;;;;;;;2.71;100.00;97557.19;4970699;28;20428;-59
2021/12/24 05:27:14;;;;;;;181.83;97.60;;;;;;;2.82;100.00;97574.81;4967886;28;20045;-58
2021/12/24 05:29:41;;;;;;;181.63;102.90;;;;;;;2.77;100.00;97571.47;4969087;28;20062;-59
2021/12/24 05:32:07;;;;;;;179.90;102.27;;;;;;;2.78;100.00;97559.66;4971167;28;20031;-59
2021/12/24 05:34:33;;;;;;;182.70;101.10;;;;;;;2.79;100.00;97577.38;4972675;28;20033;-59
2021/12/24 05:36:59;;;;;;;182.37;101.67;;;;;;;2.81;100.00;97567.22;4975852;28;20036;-58
2021/12/24 05:39:24;;;;;;;180.47;99.47;;;;;;;2.84;100.00;97574.81;4971357;28;20030;-57
2021/12/24 05:41:50;;;;;;;178.47;98.47;;;;;;;2.88;100.00;97576.47;4973044;28;20393;-58
2021/12/24 05:44:17;;;;;;;168.63;95.33;;;;;;;2.98;100.00;97575.56;4970666;28;20034;-57
2021/12/24 05:46:45;;;;;;;177.50;100.67;;;;;;;2.88;100.00;97577.31;4972803;28;20030;-58
2021/12/24 05:49:10;;;;;;;192.90;103.60;;;;;;;2.87;100.00;97568.03;4968433;28;20026;-57
2021/12/24 05:51:36;;;;;;;187.80;104.20;;;;;;;2.74;100.00;97567.28;4970645;28;20226;-59
2021/12/24 05:54:03;;;;;;;191.00;104.30;;;;;;;2.83;100.00;97568.06;4971699;28;20093;-58
2021/12/24 05:56:29;;;;;;;200.97;109.70;;;;;;;2.85;100.00;97563.81;4967030;28;20606;-58
2021/12/24 05:58:55;;;;;;;205.17;107.23;;;;;;;2.82;100.00;97591.69;4967635;28;20030;-58
2021/12/24 06:01:21;;;;;;;182.10;103.80;;;;;;;2.91;100.00;97567.19;4969968;28;20038;-58
2021/12/24 06:03:47;;;;;;;184.40;105.23;;;;;;;2.79;100.00;97567.25;4975435;28;20034;-58
2021/12/24 06:06:13;;;;;;;201.53;112.00;;;;;;;2.79;100.00;97561.34;4969414;28;20140;-55
2021/12/24 06:08:39;;;;;;;208.60;108.00;;;;;;;2.80;100.00;97576.50;4969916;28;20027;-58
2021/12/24 06:11:05;;;;;;;188.07;105.67;;;;;;;2.88;100.00;97573.94;4971740;28;20442;-57
2021/12/24 06:13:31;;;;;;;170.03;95.87;;;;;;;3.05;100.00;97564.56;4979974;28;20528;-57
2021/12/24 06:15:56;;;;;;;173.30;97.63;;;;;;;3.34;100.00;97559.28;4973249;28;20050;-59
2021/12/24 06:18:25;;;;;;;182.20;105.97;;;;;;;3.40;100.00;97565.13;4972614;28;20030;-58
2021/12/24 06:20:52;;;;;;;185.90;105.53;;;;;;;3.43;100.00;97567.66;4977075;28;20030;-59
2021/12/24 06:23:20;;;;;;;166.13;97.10;;;;;;;3.38;100.00;97551.66;4975374;28;20034;-59
2021/12/24 06:25:47;;;;;;;178.37;105.13;;;;;;;3.29;100.00;97555.94;4970777;28;20687;-56
2021/12/24 06:28:13;;;;;;;176.73;106.03;;;;;;;3.31;100.00;97561.84;4971719;28;20030;-59
2021/12/24 06:30:39;;;;;;;167.00;98.33;;;;;;;3.77;100.00;97557.22;4974848;28;20034;-56
2021/12/24 06:33:04;;;;;;;170.77;103.03;;;;;;;3.83;100.00;97562.22;4974204;28;20364;-57
2021/12/24 06:35:30;;;;;;;186.00;108.53;;;;;;;3.79;100.00;97558.88;4971354;28;20034;-58
2021/12/24 06:37:59;;;;;;;180.30;104.10;;;;;;;4.10;100.00;97564.50;4974249;28;20031;-55
2021/12/24 06:40:25;;;;;;;173.10;103.83;;;;;;;3.96;100.00;97563.78;4976120;28;20030;-57
2021/12/24 06:42:51;;;;;;;183.97;105.23;;;;;;;3.86;100.00;97554.59;4977275;28;20035;-58
2021/12/24 06:45:22;;;;;;;184.97;111.07;;;;;;;3.82;100.00;97555.50;4972130;28;20374;-55
2021/12/24 06:47:48;;;;;;;180.67;105.93;;;;;;;3.92;100.00;97559.59;4973518;28;20084;-57
2021/12/24 06:50:14;;;;;;;182.27;109.37;;;;;;;3.89;100.00;97567.25;4974311;28;20646;-59
2021/12/24 06:52:40;;;;;;;166.23;104.33;;;;;;;3.93;100.00;97564.66;4971279;28;20030;-58
2021/12/24 06:55:06;;;;;;;165.97;102.80;;;;;;;4.07;100.00;97574.69;4969035;28;20027;-58
2021/12/24 06:57:31;;;;;;;134.17;91.57;;;;;;;5.27;100.00;97571.41;4972287;28;20084;-57
2021/12/24 06:59:57;;;;;;;107.73;94.47;;;;;;;8.94;100.00;97560.66;4973301;28;20173;-57
2021/12/24 07:02:22;;;;;;;95.73;87.17;;;;;;;10.28;100.00;97564.00;4975258;28;20629;-58
2021/12/24 07:04:47;;;;;;;124.50;113.67;;;;;;;10.64;100.00;97555.00;4971528;28;20198;-57
2021/12/24 07:07:13;;;;;;;6.97;2.37;;;;;;;11.12;100.00;97559.22;4977768;28;20073;-58
2021/12/24 07:09:42;;;;;;;4.55;2.60;;;;;;;11.54;97.61;97547.25;4975605;28;20077;-58
2021/12/24 07:12:13;;;;;;;238.33;209.70;;;;;;;11.68;95.66;97559.53;4971863;28;20169;-57
2021/12/24 07:14:42;;;;;;;196.32;181.20;;;;;;;11.98;92.42;97547.19;4971691;28;20409;-58
2021/12/24 07:17:08;;;;;;;178.88;166.95;;;;;;;11.92;91.66;97544.88;4973652;28;20718;-57
2021/12/24 07:19:34;;;;;;;251.40;231.70;;;;;;;12.09;90.22;97548.44;4971761;28;20022;-59
2021/12/24 07:22:00;;;;;;;3.78;2.33;;;;;;;12.06;90.69;97548.53;4970342;28;20030;-58
2021/12/24 07:24:26;;;;;;;198.40;184.52;;;;;;;11.84;91.33;97547.75;4973264;28;20065;-58
2021/12/24 07:26:51;;;;;;;270.10;250.02;;;;;;;12.10;89.22;97544.09;4976134;28;20088;-57
2021/12/24 07:29:17;;;;;;;332.80;284.42;;;;;;;12.21;87.51;97549.63;4975089;28;20071;-57
2021/12/24 07:31:42;;;;;;;310.63;280.40;;;;;;;12.27;87.50;97536.50;4974248;28;20054;-58
2021/12/24 07:34:08;;;;;;;305.75;278.45;;;;;;;12.25;87.52;97535.75;4989558;28;20453;-58
2021/12/24 07:36:33;;;;;;;308.60;276.55;;;;;;;12.32;87.29;97535.41;4972494;28;20041;-59
2021/12/24 07:38:59;;;;;;;309.08;277.83;;;;;;;12.34;86.64;97523.34;4972006;28;20042;-58
2021/12/24 07:41:25;;;;;;;313.40;282.67;;;;;;;12.36;87.09;97536.94;4967421;28;20023;-58
2021/12/24 07:43:51;;;;;;;248.15;229.82;;;;;;;12.35;86.98;97526.72;4971373;28;20310;-60
2021/12/24 07:46:17;;;;;;;216.68;201.15;;;;;;;12.40;86.14;97529.09;4971859;28;20271;-58
2021/12/24 07:48:47;;;;;;;293.13;266.42;;;;;;;12.36;85.53;97524.09;4971340;28;20117;-59
2021/12/24 07:54:00;;;;;;;3.85;1.20;;;;;;;12.48;84.12;97519.31;4971355;28;20555;-59
2021/12/24 07:56:30;;;;;;;0.90;0.90;;;;;;;12.47;83.84;97509.94;4973139;28;20141;-59
2021/12/24 07:58:55;;;;;;;1.50;1.40;;;;;;;12.54;82.76;97517.31;4974714;28;20073;-58
2021/12/24 08:01:27;;;;;;;54.03;51.30;;;;;;;12.48;83.07;97522.72;4973111;28;20034;-59
2021/12/24 08:03:54;;;;;;;9.85;9.10;;;;;;;12.52;82.69;97511.38;4972867;28;20030;-58
2021/12/24 08:06:23;;;;;;;2.58;1.00;;;;;;;12.45;82.70;97502.28;4972260;28;20046;-57
2021/12/24 08:08:48;;;;;;;2.28;0.82;;;;;;;12.60;81.74;97487.94;4968455;28;20532;-59
2021/12/24 08:11:14;;;;;;;127.38;119.47;;;;;;;12.67;81.42;97505.56;4969377;28;20157;-58
2021/12/24 08:13:39;;;;;;;55.15;52.22;;;;;;;12.64;81.06;97482.56;4972040;28;20544;-58
2021/12/24 08:16:05;;;;;;;1.30;1.20;;;;;;;12.45;82.76;97493.75;4975493;28;20026;-59
2021/12/24 08:18:30;;;;;;;2.35;1.77;;;;;;;12.56;82.72;97486.41;4971600;28;20037;-58
2021/12/24 08:20:56;;;;;;;2.45;1.38;;;;;;;12.63;82.64;97501.47;4970980;28;20026;-55
2021/12/24 08:23:21;;;;;;;2.10;1.10;;;;;;;12.67;81.72;97489.31;4977204;28;20030;-58
2021/12/24 08:25:47;;;;;;;10.32;3.80;;;;;;;12.67;81.97;97490.16;4971832;28;20026;-58
2021/12/24 08:28:12;;;;;;;9.77;5.20;;;;;;;12.71;82.19;97494.25;4970404;28;20351;-57
2021/12/24 08:30:38;;;;;;;3.00;1.30;;;;;;;12.75;81.78;97511.19;4972167;28;20034;-56
2021/12/24 08:33:04;;;;;;;1.90;1.80;;;;;;;12.85;81.47;97485.06;4973677;28;20149;-55
2021/12/24 08:35:29;;;;;;;2.53;1.35;;;;;;;12.76;81.85;97487.16;4977550;28;20491;-56
2021/12/24 08:37:55;;;;;;;4.45;2.38;;;;;;;12.75;81.86;97485.47;4971776;28;20026;-54
2021/12/24 08:40:21;;;;;;;4.38;2.40;;;;;;;12.73;81.60;97463.31;4976424;28;20022;-57
2021/12/24 08:42:46;;;;;;;2.45;1.42;;;;;;;12.86;80.26;97464.38;4972722;28;20035;-54
2021/12/24 08:45:12;;;;;;;7.22;3.30;;;;;;;12.89;79.92;97466.84;4971562;28;20034;-60
2021/12/24 08:47:42;;;;;;;2.08;1.15;;;;;;;12.87;79.45;97475.50;4973628;28;20129;-57
2021/12/24 08:50:09;;;;;;;9.63;8.95;;;;;;;12.81;80.67;97467.19;4974189;28;20039;-55
2021/12/24 08:52:34;;;;;;;229.23;209.40;;;;;;;12.89;79.53;97468.56;4973288;28;20070;-58
2021/12/24 08:55:00;;;;;;;248.63;230.13;;;;;;;12.94;79.81;97479.50;4972745;28;20034;-57
2021/12/24 08:57:25;;;;;;;8.68;5.72;;;;;;;12.93;78.78;97473.50;4973403;28;20096;-59
2021/12/24 08:59:51;;;;;;;361.40;324.45;;;;;;;12.92;78.89;97483.84;4973953;28;20038;-58
2021/12/24 09:02:17;;;;;;;362.80;324.25;;;;;;;12.90;78.44;97477.97;4972877;28;20052;-59
2021/12/24 09:04:42;;;;;;;355.45;317.75;;;;;;;12.93;78.00;97480.38;4970528;28;20102;-57
2021/12/24 09:07:07;;;;;;;380.58;327.33;;;;;;;12.88;78.07;97485.75;4972402;28;20503;-56
2021/12/24 09:09:33;;;;;;;359.70;325.13;;;;;;;12.98;77.33;97471.56;4970941;28;20473;-55
2021/12/24 09:11:58;;;;;;;6.65;5.97;;;;;;;13.02;76.85;97474.81;4977342;28;20093;-59
2021/12/24 09:14:25;;;;;;;356.75;318.92;;;;;;;13.07;76.15;97471.09;4972409;28;20035;-57
2021/12/24 09:16:52;;;;;;;339.00;304.63;;;;;;;13.09;76.28;97478.75;4975944;28;20188;-59
2021/12/24 09:19:23;;;;;;;349.75;314.20;;;;;;;13.02;76.54;97473.09;4969413;28;20038;-59
2021/12/24 09:21:49;;;;;;;334.17;305.75;;;;;;;13.00;77.15;97474.03;4971313;28;20023;-58
2021/12/24 09:24:17;;;;;;;2.55;1.40;;;;;;;12.85;77.76;97474.78;4972282;28;20045;-58
2021/12/24 09:26:42;;;;;;;1.60;1.50;;;;;;;12.96;77.17;97483.66;4971841;28;20031;-58
2021/12/24 09:29:09;;;;;;;406.92;359.90;;;;;;;12.93;76.79;97477.81;4969778;28;20532;-57
2021/12/24 09:31:36;;;;;;;416.73;330.83;;;;;;;13.05;76.62;97482.38;4971047;28;20041;-59
2021/12/24 09:34:02;;;;;;;431.30;337.63;;;;;;;12.99;77.31;97488.63;4973402;28;20082;-60
2021/12/24 09:36:28;;;;;;;371.02;329.10;;;;;;;12.82;78.76;97499.72;4976021;28;20602;-59
2021/12/24 09:39:00;;;;;;;381.45;324.48;;;;;;;12.94;79.17;97476.91;4973677;28;20030;-56
2021/12/24 09:41:26;;;;;;;375.58;317.98;;;;;;;12.78;80.71;97479.34;4967907;28;20829;-60
2021/12/24 09:43:54;;;;;;;374.45;308.98;;;;;;;12.90;79.51;97483.13;4970429;28;20514;-60
2021/12/24 09:46:19;;;;;;;378.92;318.67;;;;;;;12.89;79.14;97491.72;4972510;28;20511;-59
2021/12/24 09:48:45;;;;;;;394.30;329.35;;;;;;;12.80;80.23;97498.97;4953560;28;20054;-58
2021/12/24 09:51:10;;;;;;;370.90;319.73;;;;;;;12.89;79.78;97507.16;4972531;28;20599;-59
2021/12/24 09:53:36;;;;;;;363.38;303.88;;;;;;;12.82;81.46;97496.31;4975003;28;20034;-54
2021/12/24 09:56:04;;;;;;;414.25;308.67;;;;;;;12.66;83.49;97496.19;4972966;28;20030;-58
2021/12/24 09:58:29;;;;;;;421.67;318.60;;;;;;;12.59;85.16;97492.22;4971238;28;20451;-60
2021/12/24 10:00:55;;;;;;;430.13;310.15;;;;;;;12.53;86.85;97502.78;4974997;28;20034;-60
2021/12/24 10:03:28;;;;;;;432.48;309.88;;;;;;;12.39;87.93;97505.13;4973325;28;20065;-60
2021/12/24 10:05:54;;;;;;;436.30;315.27;;;;;;;12.14;90.18;97501.94;4973988;28;20108;-57
2021/12/24 10:08:22;;;;;;;436.13;299.57;;;;;;;12.14;91.06;97505.34;4977609;28;20054;-59
2021/12/24 10:10:53;;;;;;;431.70;285.73;;;;;;;12.17;90.98;97487.25;4977831;28;20042;-58
2021/12/24 10:13:27;;;;;;;432.50;293.70;;;;;;;12.11;91.43;97487.53;4976441;28;20087;-56
2021/12/24 10:15:58;;;;;;;430.70;296.57;;;;;;;12.17;92.15;97489.00;4975030;28;20093;-58
2021/12/24 10:18:33;;;;;;;432.63;294.60;;;;;;;12.07;92.52;97480.00;4976936;28;20038;-60
2021/12/24 10:21:04;;;;;;;426.27;280.52;;;;;;;12.01;93.77;97473.38;4980050;28;20027;-57
2021/12/24 10:23:44;;;;;;;423.47;284.47;;;;;;;11.99;93.97;97472.63;4979323;28;20034;-59
2021/12/24 10:26:34;;;;;;;425.10;289.03;;;;;;;11.87;95.27;97474.00;4975846;28;20023;-58
2021/12/24 10:29:09;;;;;;;417.30;276.07;;;;;;;11.83;95.47;97479.34;4967576;28;20054;-59
2021/12/24 10:31:38;;;;;;;416.70;291.87;;;;;;;11.86;96.13;97480.03;4980119;28;20596;-59
2021/12/24 10:34:13;;;;;;;412.53;285.43;;;;;;;11.92;95.32;97483.25;4977361;28;20031;-60
2021/12/24 10:36:58;;;;;;;;;;;;;;;11.95;95.30;97488.25;4977116;28;20023;-59
2021/12/24 10:39:37;;;;;;;407.50;278.23;;;;;;;12.11;93.62;97482.38;4977663;28;19918;-59
2021/12/24 10:42:12;;;;;;;401.87;271.63;;;;;;;12.20;92.86;97483.72;4975933;28;20030;-58
2021/12/24 10:44:40;;;;;;;343.08;277.30;;;;;;;12.47;90.45;97489.38;4973583;28;20034;-60
2021/12/24 10:47:29;;;;;;;340.80;289.25;;;;;;;12.57;89.20;97472.63;4973535;28;20039;-59
2021/12/24 10:50:08;;;;;;;316.70;277.63;;;;;;;12.63;88.84;97501.47;4975434;28;20046;-57
2021/12/24 10:52:57;;;;;;;360.35;295.83;;;;;;;12.74;87.94;97485.53;4975970;28;20084;-59
2021/12/24 10:55:26;;;;;;;413.97;318.27;;;;;;;12.73;89.19;97484.69;4976321;28;20030;-59
2021/12/24 10:57:53;;;;;;;372.50;328.25;;;;;;;12.65;89.48;97485.94;4979022;28;20042;-59
2021/12/24 11:00:33;;;;;;;74.72;69.18;;;;;;;12.59;90.91;97489.66;4974637;28;20023;-59
2021/12/24 11:03:05;;;;;;;237.77;221.07;;;;;;;12.59;90.35;97484.53;4972740;28;20041;-60
2021/12/24 11:05:44;;;;;;;336.70;286.27;;;;;;;12.53;90.09;97483.94;4970622;28;20047;-59
2021/12/24 11:08:16;;;;;;;433.35;311.30;;;;;;;12.58;89.42;97490.56;4975388;28;20756;-59
2021/12/24 11:10:47;;;;;;;395.80;303.50;;;;;;;12.49;90.44;97485.81;4975180;28;20156;-58
2021/12/24 11:13:16;;;;;;;397.07;315.03;;;;;;;12.56;89.07;97487.19;4976072;28;20105;-59
2021/12/24 11:15:46;;;;;;;401.83;324.73;;;;;;;12.43;91.33;97478.41;4975942;28;20421;-59
2021/12/24 11:18:19;;;;;;;385.40;305.60;;;;;;;12.51;90.68;97476.31;4974921;28;20031;-59
2021/12/24 11:20:49;;;;;;;387.23;286.77;;;;;;;12.46;91.32;97485.13;4974411;28;20034;-58
2021/12/24 11:23:16;;;;;;;395.25;292.35;;;;;;;12.42;91.47;97481.88;4970607;28;20039;-58
2021/12/24 11:25:46;;;;;;;386.88;302.40;;;;;;;12.41;91.78;97481.94;4973186;28;20042;-59
2021/12/24 11:28:13;;;;;;;390.88;299.27;;;;;;;12.44;91.38;97490.31;4974701;28;20027;-59
2021/12/24 11:30:43;;;;;;;398.95;306.13;;;;;;;12.42;90.55;97475.88;4973579;28;20092;-60
2021/12/24 11:33:14;;;;;;;390.90;303.33;;;;;;;12.46;90.52;97478.25;4970226;28;20039;-58
2021/12/24 11:35:39;;;;;;;396.63;307.80;;;;;;;12.47;90.33;97463.66;4972866;28;20116;-59
2021/12/24 11:38:05;;;;;;;404.90;304.38;;;;;;;12.36;91.22;97466.72;4976461;28;20026;-58
2021/12/24 11:40:31;;;;;;;403.55;301.45;;;;;;;12.44;91.13;97471.50;4961428;28;20033;-57
2021/12/24 11:43:03;;;;;;;396.60;307.17;;;;;;;12.36;90.65;97480.41;4970217;28;20174;-60
2021/12/24 11:45:29;;;;;;;401.02;316.52;;;;;;;12.30;91.30;97474.72;4977181;28;20041;-58
2021/12/24 11:47:55;;;;;;;394.75;313.08;;;;;;;12.27;91.87;97483.38;4978204;28;20038;-60
2021/12/24 11:50:22;;;;;;;391.05;319.80;;;;;;;12.28;91.18;97479.91;4976161;28;20089;-59
2021/12/24 11:52:50;;;;;;;388.75;318.30;;;;;;;12.23;91.60;97481.00;4970072;28;20050;-60
2021/12/24 11:55:18;;;;;;;397.83;305.23;;;;;;;12.15;92.79;97485.66;4973080;28;20023;-58
2021/12/24 11:57:57;;;;;;;385.50;307.20;;;;;;;12.18;93.26;97481.19;4974252;28;20108;-59
2021/12/24 12:00:45;;;;;;;386.00;307.35;;;;;;;12.19;93.27;97488.00;4971255;28;20054;-60
2021/12/24 12:03:30;;;;;;;375.15;309.67;;;;;;;12.15;93.64;97488.22;4973172;28;22041;-60
2021/12/24 12:05:56;;;;;;;384.58;302.70;;;;;;;12.20;93.73;97483.72;4976198;28;20081;-61
2021/12/24 12:08:25;;;;;;;389.50;304.38;;;;;;;12.27;93.48;97482.53;4973449;28;20827;-59
2021/12/24 12:11:00;;;;;;;386.05;311.33;;;;;;;12.24;93.79;97467.25;4968549;28;20065;-58
2021/12/24 12:14:10;;;;;;;384.23;307.45;;;;;;;12.21;93.32;97469.97;4973474;28;20038;-59
2021/12/24 12:17:00;;;;;;;383.70;298.95;;;;;;;12.41;91.82;97469.06;4882596;29;20041;-58
2021/12/24 12:22:18;;;;;;;378.48;295.35;;;;;;;12.38;91.96;97479.50;4881688;29;20044;-58
2021/12/24 12:24:58;;;;;;;375.08;299.52;;;;;;;12.39;92.01;97483.75;4884033;29;20104;-59
2021/12/24 12:27:36;;;;;;;377.88;295.08;;;;;;;12.34;91.75;97483.94;4880841;29;20033;-58
2021/12/24 12:30:19;;;;;;;360.38;299.35;;;;;;;12.25;92.23;97471.50;4879083;29;20059;-58
2021/12/24 12:32:46;;;;;;;364.10;290.05;;;;;;;12.30;92.41;97467.00;4883256;29;20124;-59
2021/12/24 12:35:12;;;;;;;357.83;304.55;;;;;;;12.34;92.29;97473.66;4884710;29;20483;-58
2021/12/24 12:37:43;;;;;;;376.10;314.77;;;;;;;12.36;93.25;97469.28;4883011;29;20422;-57
2021/12/24 12:40:17;;;;;;;384.02;329.85;;;;;;;12.32;93.27;97475.47;4881096;29;20517;-57
2021/12/24 12:42:53;;;;;;;347.48;280.83;;;;;;;12.29;93.81;97473.88;4886223;29;20040;-58
2021/12/24 12:45:20;;;;;;;;;;;;;;;12.28;93.66;97473.94;4883690;29;20032;-58
2021/12/24 12:47:58;;;;;;;354.95;283.67;;;;;;;12.21;93.83;97477.69;4880029;29;20465;-59
2021/12/24 12:50:26;;;;;;;356.77;307.15;;;;;;;12.18;93.64;97475.22;4922223;28;21145;-57
2021/12/24 12:53:29;;;;;;;360.63;306.77;;;;;;;12.17;94.19;97471.00;4949076;28;20054;-57
2021/12/24 12:56:16;;;;;;;349.23;294.63;;;;;;;12.18;93.75;97472.66;4969373;28;20071;-59
2021/12/24 12:58:44;;;;;;;353.30;287.20;;;;;;;12.18;93.43;97454.66;4973113;28;20038;-59
2021/12/24 13:01:12;;;;;;;360.77;293.08;;;;;;;12.09;95.32;97471.34;4966230;28;20093;-60